sensor_id;sensor_type;location;lat;lon;timestamp;P1;durP1;ratioP1;P2;durP2;ratioP2
5456;SDS011;2751;49.802;9.944;2023-08-12T00:02:01;11.20;;;10.40;;
5456;SDS011;2751;49.802;9.944;2023-08-12T00:04:27;10.90;;;10.20;;
5456;SDS011;2751;49.802;9.944;2023-08-12T00:06:54;11.30;;;10.40;;
5456;SDS011;2751;49.802;9.944;2023-08-12T00:09:21;11.60;;;10.70;;
5456;SDS011;2751;49.802;9.944;2023-08-12T00:11:49;10.80;;;10.20;;
5456;SDS011;2751;49.802;9.944;2023-08-12T00:14:16;10.60;;;9.90;;
5456;SDS011;2751;49.802;9.944;2023-08-12T00:16:43;10.57;;;9.50;;
5456;SDS011;2751;49.802;9.944;2023-08-12T00:19:10;10.53;;;9.60;;
5456;SDS011;2751;49.802;9.944;2023-08-12T00:21:37;11.50;;;10.30;;
5456;SDS011;2751;49.802;9.944;2023-08-12T00:24:04;11.07;;;10.27;;
5456;SDS011;2751;49.802;9.944;2023-08-12T00:26:31;11.10;;;10.30;;
5456;SDS011;2751;49.802;9.944;2023-08-12T00:28:59;11.53;;;10.30;;
5456;SDS011;2751;49.802;9.944;2023-08-12T00:31:26;11.20;;;10.37;;
5456;SDS011;2751;49.802;9.944;2023-08-12T00:33:53;11.23;;;10.20;;
5456;SDS011;2751;49.802;9.944;2023-08-12T00:36:20;11.47;;;10.47;;
5456;SDS011;2751;49.802;9.944;2023-08-12T00:38:47;10.23;;;9.53;;
5456;SDS011;2751;49.802;9.944;2023-08-12T00:41:14;10.27;;;9.43;;
5456;SDS011;2751;49.802;9.944;2023-08-12T00:43:41;10.70;;;9.97;;
5456;SDS011;2751;49.802;9.944;2023-08-12T00:46:09;11.03;;;10.07;;
5456;SDS011;2751;49.802;9.944;2023-08-12T00:48:36;10.77;;;10.00;;
5456;SDS011;2751;49.802;9.944;2023-08-12T00:51:03;11.20;;;10.30;;
5456;SDS011;2751;49.802;9.944;2023-08-12T00:53:30;11.30;;;10.10;;
5456;SDS011;2751;49.802;9.944;2023-08-12T00:55:57;11.70;;;10.53;;
5456;SDS011;2751;49.802;9.944;2023-08-12T00:58:24;15.00;;;11.30;;
5456;SDS011;2751;49.802;9.944;2023-08-12T01:00:51;11.00;;;10.10;;
5456;SDS011;2751;49.802;9.944;2023-08-12T01:03:19;11.40;;;10.30;;
5456;SDS011;2751;49.802;9.944;2023-08-12T01:05:47;10.40;;;9.50;;
5456;SDS011;2751;49.802;9.944;2023-08-12T01:08:13;11.50;;;9.70;;
5456;SDS011;2751;49.802;9.944;2023-08-12T01:10:43;10.87;;;9.77;;
5456;SDS011;2751;49.802;9.944;2023-08-12T01:13:16;10.80;;;10.00;;
5456;SDS011;2751;49.802;9.944;2023-08-12T01:15:52;10.03;;;9.30;;
5456;SDS011;2751;49.802;9.944;2023-08-12T01:18:23;10.63;;;9.90;;
5456;SDS011;2751;49.802;9.944;2023-08-12T01:20:51;10.50;;;9.60;;
5456;SDS011;2751;49.802;9.944;2023-08-12T01:23:20;10.73;;;9.80;;
5456;SDS011;2751;49.802;9.944;2023-08-12T01:25:47;9.83;;;9.23;;
5456;SDS011;2751;49.802;9.944;2023-08-12T01:28:14;10.57;;;9.70;;
5456;SDS011;2751;49.802;9.944;2023-08-12T01:30:43;10.20;;;9.40;;
5456;SDS011;2751;49.802;9.944;2023-08-12T01:33:17;10.20;;;9.27;;
5456;SDS011;2751;49.802;9.944;2023-08-12T01:35:50;10.27;;;9.30;;
5456;SDS011;2751;49.802;9.944;2023-08-12T01:38:22;10.30;;;9.60;;
5456;SDS011;2751;49.802;9.944;2023-08-12T01:40:52;10.00;;;9.03;;
5456;SDS011;2751;49.802;9.944;2023-08-12T01:43:19;9.97;;;9.00;;
5456;SDS011;2751;49.802;9.944;2023-08-12T01:45:46;9.60;;;9.00;;
5456;SDS011;2751;49.802;9.944;2023-08-12T01:48:13;9.33;;;8.70;;
5456;SDS011;2751;49.802;9.944;2023-08-12T01:50:40;8.67;;;7.93;;
5456;SDS011;2751;49.802;9.944;2023-08-12T01:53:12;9.33;;;8.63;;
5456;SDS011;2751;49.802;9.944;2023-08-12T01:55:42;8.77;;;8.17;;
5456;SDS011;2751;49.802;9.944;2023-08-12T01:58:09;9.07;;;8.40;;
5456;SDS011;2751;49.802;9.944;2023-08-12T02:00:36;9.67;;;8.73;;
5456;SDS011;2751;49.802;9.944;2023-08-12T02:03:03;8.60;;;7.77;;
5456;SDS011;2751;49.802;9.944;2023-08-12T02:05:30;9.43;;;8.70;;
5456;SDS011;2751;49.802;9.944;2023-08-12T02:07:57;8.60;;;8.00;;
5456;SDS011;2751;49.802;9.944;2023-08-12T02:10:24;9.00;;;8.17;;
5456;SDS011;2751;49.802;9.944;2023-08-12T02:12:52;8.70;;;8.10;;
5456;SDS011;2751;49.802;9.944;2023-08-12T02:15:19;8.90;;;8.00;;
5456;SDS011;2751;49.802;9.944;2023-08-12T02:17:46;9.10;;;8.20;;
5456;SDS011;2751;49.802;9.944;2023-08-12T02:20:13;8.73;;;7.83;;
5456;SDS011;2751;49.802;9.944;2023-08-12T02:22:40;13.83;;;8.37;;
5456;SDS011;2751;49.802;9.944;2023-08-12T02:25:07;10.70;;;8.10;;
5456;SDS011;2751;49.802;9.944;2023-08-12T02:27:34;8.73;;;8.03;;
5456;SDS011;2751;49.802;9.944;2023-08-12T02:30:03;10.80;;;7.83;;
5456;SDS011;2751;49.802;9.944;2023-08-12T02:32:30;8.60;;;7.83;;
5456;SDS011;2751;49.802;9.944;2023-08-12T02:34:57;11.47;;;7.70;;
5456;SDS011;2751;49.802;9.944;2023-08-12T02:37:24;9.47;;;8.67;;
5456;SDS011;2751;49.802;9.944;2023-08-12T02:39:51;9.40;;;8.50;;
5456;SDS011;2751;49.802;9.944;2023-08-12T02:42:17;8.30;;;7.50;;
5456;SDS011;2751;49.802;9.944;2023-08-12T02:44:44;8.47;;;7.87;;
5456;SDS011;2751;49.802;9.944;2023-08-12T02:47:13;8.47;;;7.67;;
5456;SDS011;2751;49.802;9.944;2023-08-12T02:49:39;8.70;;;7.73;;
5456;SDS011;2751;49.802;9.944;2023-08-12T02:52:06;8.93;;;8.20;;
5456;SDS011;2751;49.802;9.944;2023-08-12T02:54:34;9.03;;;7.97;;
5456;SDS011;2751;49.802;9.944;2023-08-12T02:57:01;9.13;;;8.07;;
5456;SDS011;2751;49.802;9.944;2023-08-12T02:59:28;8.30;;;7.60;;
5456;SDS011;2751;49.802;9.944;2023-08-12T03:01:55;8.57;;;7.87;;
5456;SDS011;2751;49.802;9.944;2023-08-12T03:04:23;8.60;;;7.80;;
5456;SDS011;2751;49.802;9.944;2023-08-12T03:06:50;8.17;;;7.37;;
5456;SDS011;2751;49.802;9.944;2023-08-12T03:09:17;9.90;;;7.53;;
5456;SDS011;2751;49.802;9.944;2023-08-12T03:11:45;8.93;;;7.03;;
5456;SDS011;2751;49.802;9.944;2023-08-12T03:14:12;8.10;;;7.33;;
5456;SDS011;2751;49.802;9.944;2023-08-12T03:16:39;8.57;;;7.83;;
5456;SDS011;2751;49.802;9.944;2023-08-12T03:19:06;10.47;;;7.70;;
5456;SDS011;2751;49.802;9.944;2023-08-12T03:21:34;8.53;;;7.80;;
5456;SDS011;2751;49.802;9.944;2023-08-12T03:24:01;8.50;;;7.70;;
5456;SDS011;2751;49.802;9.944;2023-08-12T03:26:28;9.40;;;7.30;;
5456;SDS011;2751;49.802;9.944;2023-08-12T03:28:54;8.13;;;7.40;;
5456;SDS011;2751;49.802;9.944;2023-08-12T03:31:21;7.93;;;7.23;;
5456;SDS011;2751;49.802;9.944;2023-08-12T03:33:48;10.17;;;7.23;;
5456;SDS011;2751;49.802;9.944;2023-08-12T03:36:15;9.07;;;7.57;;
5456;SDS011;2751;49.802;9.944;2023-08-12T03:38:43;8.37;;;7.67;;
5456;SDS011;2751;49.802;9.944;2023-08-12T03:41:10;7.40;;;6.90;;
5456;SDS011;2751;49.802;9.944;2023-08-12T03:43:37;8.40;;;7.00;;
5456;SDS011;2751;49.802;9.944;2023-08-12T03:46:04;8.90;;;8.00;;
5456;SDS011;2751;49.802;9.944;2023-08-12T03:48:31;12.60;;;7.70;;
5456;SDS011;2751;49.802;9.944;2023-08-12T03:50:58;10.40;;;7.67;;
5456;SDS011;2751;49.802;9.944;2023-08-12T03:53:25;8.47;;;7.67;;
5456;SDS011;2751;49.802;9.944;2023-08-12T03:55:53;8.33;;;7.73;;
5456;SDS011;2751;49.802;9.944;2023-08-12T03:58:20;7.60;;;7.00;;
5456;SDS011;2751;49.802;9.944;2023-08-12T04:00:47;12.70;;;7.77;;
5456;SDS011;2751;49.802;9.944;2023-08-12T04:03:14;7.90;;;7.20;;
5456;SDS011;2751;49.802;9.944;2023-08-12T04:05:46;8.20;;;7.50;;
5456;SDS011;2751;49.802;9.944;2023-08-12T04:08:14;9.20;;;7.27;;
5456;SDS011;2751;49.802;9.944;2023-08-12T04:10:44;7.67;;;7.07;;
5456;SDS011;2751;49.802;9.944;2023-08-12T04:13:12;8.03;;;7.30;;
5456;SDS011;2751;49.802;9.944;2023-08-12T04:15:40;7.33;;;6.83;;
5456;SDS011;2751;49.802;9.944;2023-08-12T04:18:07;10.13;;;6.80;;
5456;SDS011;2751;49.802;9.944;2023-08-12T04:20:34;7.63;;;7.13;;
5456;SDS011;2751;49.802;9.944;2023-08-12T04:23:01;7.60;;;6.77;;
5456;SDS011;2751;49.802;9.944;2023-08-12T04:25:28;8.40;;;7.00;;
5456;SDS011;2751;49.802;9.944;2023-08-12T04:27:55;10.33;;;7.37;;
5456;SDS011;2751;49.802;9.944;2023-08-12T04:30:23;8.27;;;7.27;;
5456;SDS011;2751;49.802;9.944;2023-08-12T04:32:51;8.30;;;6.70;;
5456;SDS011;2751;49.802;9.944;2023-08-12T04:35:18;13.83;;;6.63;;
5456;SDS011;2751;49.802;9.944;2023-08-12T04:37:45;7.40;;;6.70;;
5456;SDS011;2751;49.802;9.944;2023-08-12T04:40:12;8.60;;;6.40;;
5456;SDS011;2751;49.802;9.944;2023-08-12T04:42:39;6.77;;;6.17;;
5456;SDS011;2751;49.802;9.944;2023-08-12T04:45:06;7.03;;;6.43;;
5456;SDS011;2751;49.802;9.944;2023-08-12T04:47:34;8.77;;;6.70;;
5456;SDS011;2751;49.802;9.944;2023-08-12T04:50:02;6.60;;;6.00;;
5456;SDS011;2751;49.802;9.944;2023-08-12T04:52:29;7.60;;;6.87;;
5456;SDS011;2751;49.802;9.944;2023-08-12T04:54:56;8.50;;;6.33;;
5456;SDS011;2751;49.802;9.944;2023-08-12T04:57:23;7.00;;;6.30;;
5456;SDS011;2751;49.802;9.944;2023-08-12T04:59:50;6.90;;;6.40;;
5456;SDS011;2751;49.802;9.944;2023-08-12T05:02:17;7.33;;;6.50;;
5456;SDS011;2751;49.802;9.944;2023-08-12T05:04:47;6.70;;;6.20;;
5456;SDS011;2751;49.802;9.944;2023-08-12T05:07:14;6.90;;;6.13;;
5456;SDS011;2751;49.802;9.944;2023-08-12T05:09:41;10.73;;;6.27;;
5456;SDS011;2751;49.802;9.944;2023-08-12T05:12:09;6.93;;;6.00;;
5456;SDS011;2751;49.802;9.944;2023-08-12T05:14:36;7.20;;;6.67;;
5456;SDS011;2751;49.802;9.944;2023-08-12T05:17:03;7.20;;;6.70;;
5456;SDS011;2751;49.802;9.944;2023-08-12T05:19:31;7.67;;;6.97;;
5456;SDS011;2751;49.802;9.944;2023-08-12T05:21:59;8.07;;;7.47;;
5456;SDS011;2751;49.802;9.944;2023-08-12T05:24:26;10.90;;;7.70;;
5456;SDS011;2751;49.802;9.944;2023-08-12T05:26:53;8.57;;;7.77;;
5456;SDS011;2751;49.802;9.944;2023-08-12T05:29:20;8.13;;;7.53;;
5456;SDS011;2751;49.802;9.944;2023-08-12T05:31:47;8.33;;;7.30;;
5456;SDS011;2751;49.802;9.944;2023-08-12T05:34:13;11.37;;;7.23;;
5456;SDS011;2751;49.802;9.944;2023-08-12T05:36:40;7.97;;;7.33;;
5456;SDS011;2751;49.802;9.944;2023-08-12T05:39:08;7.43;;;6.83;;
5456;SDS011;2751;49.802;9.944;2023-08-12T05:41:36;7.73;;;7.10;;
5456;SDS011;2751;49.802;9.944;2023-08-12T05:44:03;8.37;;;7.53;;
5456;SDS011;2751;49.802;9.944;2023-08-12T05:46:30;7.90;;;7.07;;
5456;SDS011;2751;49.802;9.944;2023-08-12T05:48:57;9.10;;;7.63;;
5456;SDS011;2751;49.802;9.944;2023-08-12T05:51:25;8.50;;;7.50;;
5456;SDS011;2751;49.802;9.944;2023-08-12T05:53:51;7.43;;;6.93;;
5456;SDS011;2751;49.802;9.944;2023-08-12T05:56:20;7.67;;;6.90;;
5456;SDS011;2751;49.802;9.944;2023-08-12T05:58:47;8.30;;;7.60;;
5456;SDS011;2751;49.802;9.944;2023-08-12T06:01:13;8.53;;;7.73;;
5456;SDS011;2751;49.802;9.944;2023-08-12T06:03:40;9.27;;;7.50;;
5456;SDS011;2751;49.802;9.944;2023-08-12T06:06:07;8.33;;;7.53;;
5456;SDS011;2751;49.802;9.944;2023-08-12T06:08:34;8.73;;;7.90;;
5456;SDS011;2751;49.802;9.944;2023-08-12T06:11:01;8.77;;;8.07;;
5456;SDS011;2751;49.802;9.944;2023-08-12T06:13:29;8.87;;;8.20;;
5456;SDS011;2751;49.802;9.944;2023-08-12T06:15:56;8.57;;;7.87;;
5456;SDS011;2751;49.802;9.944;2023-08-12T06:18:23;11.30;;;8.30;;
5456;SDS011;2751;49.802;9.944;2023-08-12T06:20:50;11.93;;;8.70;;
5456;SDS011;2751;49.802;9.944;2023-08-12T06:23:17;8.70;;;7.90;;
5456;SDS011;2751;49.802;9.944;2023-08-12T06:25:44;9.67;;;8.77;;
5456;SDS011;2751;49.802;9.944;2023-08-12T06:28:10;9.40;;;8.40;;
5456;SDS011;2751;49.802;9.944;2023-08-12T06:30:39;40.03;;;36.10;;
5456;SDS011;2751;49.802;9.944;2023-08-12T06:33:05;10.10;;;9.20;;
5456;SDS011;2751;49.802;9.944;2023-08-12T06:35:32;8.87;;;8.20;;
5456;SDS011;2751;49.802;9.944;2023-08-12T06:37:59;12.23;;;9.60;;
5456;SDS011;2751;49.802;9.944;2023-08-12T06:40:26;9.83;;;9.13;;
5456;SDS011;2751;49.802;9.944;2023-08-12T06:42:53;12.63;;;9.90;;
5456;SDS011;2751;49.802;9.944;2023-08-12T06:45:20;11.60;;;10.60;;
5456;SDS011;2751;49.802;9.944;2023-08-12T06:47:48;11.10;;;10.37;;
5456;SDS011;2751;49.802;9.944;2023-08-12T06:50:15;11.67;;;10.67;;
5456;SDS011;2751;49.802;9.944;2023-08-12T06:52:42;11.77;;;11.07;;
5456;SDS011;2751;49.802;9.944;2023-08-12T06:55:09;13.27;;;12.37;;
5456;SDS011;2751;49.802;9.944;2023-08-12T06:57:36;12.43;;;11.63;;
5456;SDS011;2751;49.802;9.944;2023-08-12T07:00:03;13.37;;;12.13;;
5456;SDS011;2751;49.802;9.944;2023-08-12T07:02:30;12.70;;;11.90;;
5456;SDS011;2751;49.802;9.944;2023-08-12T07:04:59;18.67;;;17.23;;
5456;SDS011;2751;49.802;9.944;2023-08-12T07:07:26;13.63;;;12.70;;
5456;SDS011;2751;49.802;9.944;2023-08-12T07:09:53;15.07;;;13.87;;
5456;SDS011;2751;49.802;9.944;2023-08-12T07:12:19;14.33;;;13.03;;
5456;SDS011;2751;49.802;9.944;2023-08-12T07:14:46;14.57;;;13.47;;
5456;SDS011;2751;49.802;9.944;2023-08-12T07:17:13;17.20;;;15.70;;
5456;SDS011;2751;49.802;9.944;2023-08-12T07:19:40;13.80;;;12.90;;
5456;SDS011;2751;49.802;9.944;2023-08-12T07:22:08;14.47;;;13.30;;
5456;SDS011;2751;49.802;9.944;2023-08-12T07:24:35;13.57;;;12.67;;
5456;SDS011;2751;49.802;9.944;2023-08-12T07:27:02;14.60;;;13.50;;
5456;SDS011;2751;49.802;9.944;2023-08-12T07:29:29;14.27;;;13.17;;
5456;SDS011;2751;49.802;9.944;2023-08-12T07:31:56;15.43;;;14.00;;
5456;SDS011;2751;49.802;9.944;2023-08-12T07:34:23;14.30;;;13.30;;
5456;SDS011;2751;49.802;9.944;2023-08-12T07:36:50;15.30;;;13.90;;
5456;SDS011;2751;49.802;9.944;2023-08-12T07:39:18;17.00;;;15.50;;
5456;SDS011;2751;49.802;9.944;2023-08-12T07:41:45;15.00;;;13.70;;
5456;SDS011;2751;49.802;9.944;2023-08-12T07:44:12;14.63;;;13.63;;
5456;SDS011;2751;49.802;9.944;2023-08-12T07:46:39;15.47;;;14.27;;
5456;SDS011;2751;49.802;9.944;2023-08-12T07:49:05;15.83;;;14.63;;
5456;SDS011;2751;49.802;9.944;2023-08-12T07:51:32;15.90;;;14.70;;
5456;SDS011;2751;49.802;9.944;2023-08-12T07:53:59;15.47;;;13.97;;
5456;SDS011;2751;49.802;9.944;2023-08-12T07:56:27;15.83;;;14.70;;
5456;SDS011;2751;49.802;9.944;2023-08-12T07:58:54;14.90;;;13.73;;
5456;SDS011;2751;49.802;9.944;2023-08-12T08:01:21;15.10;;;14.20;;
5456;SDS011;2751;49.802;9.944;2023-08-12T08:03:48;16.63;;;15.47;;
5456;SDS011;2751;49.802;9.944;2023-08-12T08:06:15;16.10;;;14.90;;
5456;SDS011;2751;49.802;9.944;2023-08-12T08:08:42;16.57;;;15.07;;
5456;SDS011;2751;49.802;9.944;2023-08-12T08:11:09;16.07;;;14.20;;
5456;SDS011;2751;49.802;9.944;2023-08-12T08:13:37;15.00;;;13.90;;
5456;SDS011;2751;49.802;9.944;2023-08-12T08:16:04;15.60;;;14.60;;
5456;SDS011;2751;49.802;9.944;2023-08-12T08:18:31;14.63;;;13.53;;
5456;SDS011;2751;49.802;9.944;2023-08-12T08:20:58;15.87;;;14.63;;
5456;SDS011;2751;49.802;9.944;2023-08-12T08:23:25;15.93;;;14.27;;
5456;SDS011;2751;49.802;9.944;2023-08-12T08:25:52;14.83;;;14.00;;
5456;SDS011;2751;49.802;9.944;2023-08-12T08:28:19;15.53;;;14.30;;
5456;SDS011;2751;49.802;9.944;2023-08-12T08:30:47;15.20;;;14.30;;
5456;SDS011;2751;49.802;9.944;2023-08-12T08:33:14;15.63;;;14.73;;
5456;SDS011;2751;49.802;9.944;2023-08-12T08:35:41;15.60;;;14.50;;
5456;SDS011;2751;49.802;9.944;2023-08-12T08:38:08;15.70;;;14.50;;
5456;SDS011;2751;49.802;9.944;2023-08-12T08:40:34;16.90;;;15.50;;
5456;SDS011;2751;49.802;9.944;2023-08-12T08:43:02;14.40;;;13.50;;
5456;SDS011;2751;49.802;9.944;2023-08-12T08:45:33;14.47;;;13.67;;
5456;SDS011;2751;49.802;9.944;2023-08-12T08:48:02;15.23;;;14.03;;
5456;SDS011;2751;49.802;9.944;2023-08-12T08:50:31;15.10;;;14.10;;
5456;SDS011;2751;49.802;9.944;2023-08-12T08:52:58;14.90;;;14.10;;
5456;SDS011;2751;49.802;9.944;2023-08-12T08:55:27;14.13;;;13.33;;
5456;SDS011;2751;49.802;9.944;2023-08-12T08:57:54;15.70;;;14.40;;
5456;SDS011;2751;49.802;9.944;2023-08-12T09:00:22;15.43;;;14.30;;
5456;SDS011;2751;49.802;9.944;2023-08-12T09:02:49;14.97;;;13.97;;
5456;SDS011;2751;49.802;9.944;2023-08-12T09:05:19;15.50;;;13.87;;
5456;SDS011;2751;49.802;9.944;2023-08-12T09:07:46;15.00;;;14.10;;
5456;SDS011;2751;49.802;9.944;2023-08-12T09:10:14;15.57;;;14.67;;
5456;SDS011;2751;49.802;9.944;2023-08-12T09:12:43;15.47;;;14.20;;
5456;SDS011;2751;49.802;9.944;2023-08-12T09:15:11;15.27;;;14.27;;
5456;SDS011;2751;49.802;9.944;2023-08-12T09:17:38;15.67;;;14.63;;
5456;SDS011;2751;49.802;9.944;2023-08-12T09:20:06;15.13;;;14.03;;
5456;SDS011;2751;49.802;9.944;2023-08-12T09:22:38;14.93;;;14.13;;
5456;SDS011;2751;49.802;9.944;2023-08-12T09:25:06;16.20;;;15.10;;
5456;SDS011;2751;49.802;9.944;2023-08-12T09:27:35;15.10;;;14.20;;
5456;SDS011;2751;49.802;9.944;2023-08-12T09:30:03;16.57;;;15.53;;
5456;SDS011;2751;49.802;9.944;2023-08-12T09:32:31;17.00;;;15.30;;
5456;SDS011;2751;49.802;9.944;2023-08-12T09:34:59;15.97;;;15.03;;
5456;SDS011;2751;49.802;9.944;2023-08-12T09:37:28;16.30;;;15.17;;
5456;SDS011;2751;49.802;9.944;2023-08-12T09:39:56;15.20;;;14.00;;
5456;SDS011;2751;49.802;9.944;2023-08-12T09:42:23;16.40;;;15.40;;
5456;SDS011;2751;49.802;9.944;2023-08-12T09:44:51;16.10;;;14.80;;
5456;SDS011;2751;49.802;9.944;2023-08-12T09:47:17;16.63;;;15.53;;
5456;SDS011;2751;49.802;9.944;2023-08-12T09:49:45;17.57;;;16.17;;
5456;SDS011;2751;49.802;9.944;2023-08-12T09:52:11;19.10;;;17.77;;
5456;SDS011;2751;49.802;9.944;2023-08-12T09:54:38;18.00;;;16.70;;
5456;SDS011;2751;49.802;9.944;2023-08-12T09:57:09;16.90;;;15.80;;
5456;SDS011;2751;49.802;9.944;2023-08-12T09:59:39;16.27;;;15.17;;
5456;SDS011;2751;49.802;9.944;2023-08-12T10:02:07;16.20;;;15.27;;
5456;SDS011;2751;49.802;9.944;2023-08-12T10:04:44;15.43;;;14.60;;
5456;SDS011;2751;49.802;9.944;2023-08-12T10:07:12;17.00;;;15.90;;
5456;SDS011;2751;49.802;9.944;2023-08-12T10:09:39;17.97;;;16.60;;
5456;SDS011;2751;49.802;9.944;2023-08-12T10:12:07;17.70;;;16.40;;
5456;SDS011;2751;49.802;9.944;2023-08-12T10:14:36;17.70;;;16.60;;
5456;SDS011;2751;49.802;9.944;2023-08-12T10:17:04;14.60;;;13.80;;
5456;SDS011;2751;49.802;9.944;2023-08-12T10:19:31;15.10;;;14.20;;
5456;SDS011;2751;49.802;9.944;2023-08-12T10:21:58;15.40;;;14.30;;
5456;SDS011;2751;49.802;9.944;2023-08-12T10:24:26;14.73;;;13.83;;
5456;SDS011;2751;49.802;9.944;2023-08-12T10:26:53;15.93;;;15.00;;
5456;SDS011;2751;49.802;9.944;2023-08-12T10:29:22;13.40;;;12.70;;
5456;SDS011;2751;49.802;9.944;2023-08-12T10:31:49;13.73;;;12.57;;
5456;SDS011;2751;49.802;9.944;2023-08-12T10:34:17;13.93;;;13.23;;
5456;SDS011;2751;49.802;9.944;2023-08-12T10:36:46;13.27;;;12.37;;
5456;SDS011;2751;49.802;9.944;2023-08-12T10:39:13;13.03;;;12.33;;
5456;SDS011;2751;49.802;9.944;2023-08-12T10:41:43;13.43;;;12.27;;
5456;SDS011;2751;49.802;9.944;2023-08-12T10:44:17;13.00;;;12.30;;
5456;SDS011;2751;49.802;9.944;2023-08-12T10:46:51;13.23;;;12.50;;
5456;SDS011;2751;49.802;9.944;2023-08-12T10:49:19;14.80;;;13.90;;
5456;SDS011;2751;49.802;9.944;2023-08-12T10:51:47;12.97;;;12.17;;
5456;SDS011;2751;49.802;9.944;2023-08-12T10:54:16;12.60;;;11.80;;
5456;SDS011;2751;49.802;9.944;2023-08-12T10:59:51;13.20;;;12.50;;
5456;SDS011;2751;49.802;9.944;2023-08-12T11:02:27;15.10;;;14.00;;
5456;SDS011;2751;49.802;9.944;2023-08-12T11:04:55;13.13;;;12.13;;
5456;SDS011;2751;49.802;9.944;2023-08-12T11:07:28;12.87;;;12.27;;
5456;SDS011;2751;49.802;9.944;2023-08-12T11:09:59;14.00;;;13.00;;
5456;SDS011;2751;49.802;9.944;2023-08-12T11:12:30;12.77;;;12.07;;
5456;SDS011;2751;49.802;9.944;2023-08-12T11:14:59;13.97;;;12.97;;
5456;SDS011;2751;49.802;9.944;2023-08-12T11:17:30;13.07;;;12.30;;
5456;SDS011;2751;49.802;9.944;2023-08-12T11:19:59;12.60;;;12.00;;
5456;SDS011;2751;49.802;9.944;2023-08-12T11:22:29;12.67;;;11.93;;
5456;SDS011;2751;49.802;9.944;2023-08-12T11:24:56;12.93;;;11.93;;
5456;SDS011;2751;49.802;9.944;2023-08-12T11:27:23;13.63;;;12.90;;
5456;SDS011;2751;49.802;9.944;2023-08-12T11:29:50;13.20;;;12.37;;
5456;SDS011;2751;49.802;9.944;2023-08-12T11:32:17;15.70;;;14.80;;
5456;SDS011;2751;49.802;9.944;2023-08-12T11:34:46;13.97;;;13.03;;
5456;SDS011;2751;49.802;9.944;2023-08-12T11:37:13;13.27;;;12.57;;
5456;SDS011;2751;49.802;9.944;2023-08-12T11:39:40;13.50;;;12.70;;
5456;SDS011;2751;49.802;9.944;2023-08-12T11:42:07;13.43;;;12.63;;
5456;SDS011;2751;49.802;9.944;2023-08-12T11:44:34;13.37;;;12.53;;
5456;SDS011;2751;49.802;9.944;2023-08-12T11:47:01;13.77;;;12.77;;
5456;SDS011;2751;49.802;9.944;2023-08-12T11:49:28;12.90;;;12.20;;
5456;SDS011;2751;49.802;9.944;2023-08-12T11:51:56;13.30;;;12.60;;
5456;SDS011;2751;49.802;9.944;2023-08-12T11:54:23;13.40;;;12.70;;
5456;SDS011;2751;49.802;9.944;2023-08-12T11:56:51;14.80;;;13.90;;
5456;SDS011;2751;49.802;9.944;2023-08-12T11:59:18;13.97;;;12.90;;
5456;SDS011;2751;49.802;9.944;2023-08-12T12:01:48;13.97;;;13.27;;
5456;SDS011;2751;49.802;9.944;2023-08-12T12:04:15;12.90;;;12.27;;
5456;SDS011;2751;49.802;9.944;2023-08-12T12:06:44;13.27;;;12.47;;
5456;SDS011;2751;49.802;9.944;2023-08-12T12:09:13;13.30;;;12.47;;
5456;SDS011;2751;49.802;9.944;2023-08-12T12:11:43;14.20;;;13.40;;
5456;SDS011;2751;49.802;9.944;2023-08-12T12:14:10;14.37;;;13.50;;
5456;SDS011;2751;49.802;9.944;2023-08-12T12:16:38;13.73;;;13.03;;
5456;SDS011;2751;49.802;9.944;2023-08-12T12:19:08;13.70;;;12.90;;
5456;SDS011;2751;49.802;9.944;2023-08-12T12:21:39;13.70;;;13.00;;
5456;SDS011;2751;49.802;9.944;2023-08-12T12:24:07;15.30;;;14.40;;
5456;SDS011;2751;49.802;9.944;2023-08-12T12:26:35;15.17;;;14.27;;
5456;SDS011;2751;49.802;9.944;2023-08-12T12:29:03;14.33;;;13.53;;
5456;SDS011;2751;49.802;9.944;2023-08-12T12:31:31;15.80;;;14.80;;
5456;SDS011;2751;49.802;9.944;2023-08-12T12:33:59;13.60;;;12.90;;
5456;SDS011;2751;49.802;9.944;2023-08-12T12:36:26;13.47;;;12.43;;
5456;SDS011;2751;49.802;9.944;2023-08-12T12:38:53;12.70;;;12.10;;
5456;SDS011;2751;49.802;9.944;2023-08-12T12:41:20;26.57;;;24.70;;
5456;SDS011;2751;49.802;9.944;2023-08-12T12:43:48;16.37;;;15.03;;
5456;SDS011;2751;49.802;9.944;2023-08-12T12:46:15;8.73;;;7.80;;
5456;SDS011;2751;49.802;9.944;2023-08-12T12:48:42;10.30;;;4.23;;
5456;SDS011;2751;49.802;9.944;2023-08-12T12:51:10;12.00;;;2.80;;
5456;SDS011;2751;49.802;9.944;2023-08-12T12:53:38;6.40;;;2.37;;
5456;SDS011;2751;49.802;9.944;2023-08-12T12:56:05;3.80;;;3.00;;
5456;SDS011;2751;49.802;9.944;2023-08-12T12:58:32;3.23;;;2.10;;
5456;SDS011;2751;49.802;9.944;2023-08-12T13:01:02;3.13;;;2.83;;
5456;SDS011;2751;49.802;9.944;2023-08-12T13:03:29;9.90;;;3.27;;
5456;SDS011;2751;49.802;9.944;2023-08-12T13:05:57;5.17;;;2.87;;
5456;SDS011;2751;49.802;9.944;2023-08-12T13:08:24;3.10;;;2.80;;
5456;SDS011;2751;49.802;9.944;2023-08-12T13:10:51;3.30;;;2.97;;
5456;SDS011;2751;49.802;9.944;2023-08-12T13:13:18;4.83;;;3.73;;
5456;SDS011;2751;49.802;9.944;2023-08-12T13:15:45;4.00;;;3.20;;
5456;SDS011;2751;49.802;9.944;2023-08-12T13:18:14;4.00;;;2.60;;
5456;SDS011;2751;49.802;9.944;2023-08-12T13:20:40;3.27;;;2.90;;
5456;SDS011;2751;49.802;9.944;2023-08-12T13:23:07;3.80;;;3.50;;
5456;SDS011;2751;49.802;9.944;2023-08-12T13:25:34;6.67;;;3.50;;
5456;SDS011;2751;49.802;9.944;2023-08-12T13:28:02;4.27;;;3.27;;
5456;SDS011;2751;49.802;9.944;2023-08-12T13:30:29;3.40;;;3.10;;
5456;SDS011;2751;49.802;9.944;2023-08-12T13:32:56;3.20;;;2.90;;
5456;SDS011;2751;49.802;9.944;2023-08-12T13:35:25;4.80;;;3.30;;
5456;SDS011;2751;49.802;9.944;2023-08-12T13:37:51;3.20;;;2.83;;
5456;SDS011;2751;49.802;9.944;2023-08-12T13:40:18;5.40;;;2.70;;
5456;SDS011;2751;49.802;9.944;2023-08-12T13:42:45;4.23;;;3.00;;
5456;SDS011;2751;49.802;9.944;2023-08-12T13:45:13;4.23;;;2.80;;
5456;SDS011;2751;49.802;9.944;2023-08-12T13:47:40;3.37;;;2.80;;
5456;SDS011;2751;49.802;9.944;2023-08-12T13:50:07;6.07;;;3.10;;
5456;SDS011;2751;49.802;9.944;2023-08-12T13:52:36;2.37;;;2.27;;
5456;SDS011;2751;49.802;9.944;2023-08-12T13:55:03;2.60;;;2.40;;
5456;SDS011;2751;49.802;9.944;2023-08-12T13:57:31;3.03;;;1.90;;
5456;SDS011;2751;49.802;9.944;2023-08-12T13:59:58;3.03;;;1.73;;
5456;SDS011;2751;49.802;9.944;2023-08-12T14:02:25;2.50;;;1.60;;
5456;SDS011;2751;49.802;9.944;2023-08-12T14:04:52;3.53;;;1.80;;
5456;SDS011;2751;49.802;9.944;2023-08-12T14:07:19;3.63;;;2.37;;
5456;SDS011;2751;49.802;9.944;2023-08-12T14:09:47;4.30;;;2.30;;
5456;SDS011;2751;49.802;9.944;2023-08-12T14:12:14;4.93;;;2.07;;
5456;SDS011;2751;49.802;9.944;2023-08-12T14:14:41;2.10;;;1.53;;
5456;SDS011;2751;49.802;9.944;2023-08-12T14:17:08;2.87;;;1.77;;
5456;SDS011;2751;49.802;9.944;2023-08-12T14:19:39;5.03;;;2.30;;
5456;SDS011;2751;49.802;9.944;2023-08-12T14:22:07;2.30;;;2.10;;
5456;SDS011;2751;49.802;9.944;2023-08-12T14:24:33;1.90;;;1.80;;
5456;SDS011;2751;49.802;9.944;2023-08-12T14:27:02;2.23;;;2.13;;
5456;SDS011;2751;49.802;9.944;2023-08-12T14:29:29;3.00;;;2.50;;
5456;SDS011;2751;49.802;9.944;2023-08-12T14:31:56;5.03;;;2.33;;
5456;SDS011;2751;49.802;9.944;2023-08-12T14:34:24;5.10;;;2.40;;
5456;SDS011;2751;49.802;9.944;2023-08-12T14:36:50;1.90;;;1.77;;
5456;SDS011;2751;49.802;9.944;2023-08-12T14:39:17;2.57;;;2.37;;
5456;SDS011;2751;49.802;9.944;2023-08-12T14:41:44;2.93;;;2.47;;
5456;SDS011;2751;49.802;9.944;2023-08-12T14:44:13;3.97;;;2.40;;
5456;SDS011;2751;49.802;9.944;2023-08-12T14:46:40;2.90;;;2.30;;
5456;SDS011;2751;49.802;9.944;2023-08-12T14:49:08;2.70;;;2.50;;
5456;SDS011;2751;49.802;9.944;2023-08-12T14:51:34;10.93;;;6.77;;
5456;SDS011;2751;49.802;9.944;2023-08-12T14:54:01;2.40;;;2.30;;
5456;SDS011;2751;49.802;9.944;2023-08-12T14:56:28;4.63;;;4.13;;
5456;SDS011;2751;49.802;9.944;2023-08-12T14:58:55;5.20;;;3.57;;
5456;SDS011;2751;49.802;9.944;2023-08-12T15:01:24;8.90;;;8.10;;
5456;SDS011;2751;49.802;9.944;2023-08-12T15:03:53;2.93;;;2.60;;
5456;SDS011;2751;49.802;9.944;2023-08-12T15:06:20;2.80;;;2.53;;